Time;durP1;ratioP1;P1;durP2;ratioP2;P2;SDS_P1;SDS_P2;PMS_P1;PMS_P2;Temp;Humidity;BMP_temperature;BMP_pressure;BME280_temperature;BME280_humidity;BME280_pressure;Samples;Min_cycle;Max_cycle;Signal;HPM_P1;HPM_P2
2021/04/15 00:01:56;;;;;;;9.35;6.53;;;1.10;99.90;;;;;;6219416;28;20037;-78
2021/04/15 00:04:57;;;;;;;10.13;7.18;;;1.20;99.90;;;;;;6218672;28;20050;-78
2021/04/15 00:07:57;;;;;;;9.57;6.95;;;1.30;99.90;;;;;;6218107;28;20065;-78
2021/04/15 00:10:58;;;;;;;9.95;7.13;;;2.40;99.90;;;;;;6186626;28;20384;-78
2021/04/15 00:13:59;;;;;;;10.65;7.07;;;0.70;99.90;;;;;;6218857;28;20022;-78
2021/04/15 00:17:00;;;;;;;8.88;7.05;;;1.70;99.90;;;;;;6217989;28;20491;-78
2021/04/15 00:20:01;;;;;;;9.80;7.65;;;1.00;99.90;;;;;;6218207;28;20033;-78
2021/04/15 00:23:01;;;;;;;11.13;7.80;;;1.50;99.90;;;;;;6201862;28;20061;-78
2021/04/15 00:26:03;;;;;;;9.20;7.05;;;0.90;99.90;;;;;;6201362;28;20523;-78
2021/04/15 00:29:03;;;;;;;9.70;7.05;;;1.20;99.90;;;;;;6217668;28;20092;-78
2021/04/15 00:32:05;;;;;;;8.85;7.25;;;1.90;99.90;;;;;;6201650;28;20113;-78
2021/04/15 00:35:06;;;;;;;8.05;7.03;;;0.70;99.90;;;;;;6217493;28;20095;-78
2021/04/15 00:38:07;;;;;;;9.35;7.75;;;0.70;99.90;;;;;;6217642;28;20046;-78
2021/04/15 00:41:09;;;;;;;9.43;6.75;;;0.50;99.90;;;;;;6201812;28;20104;-78
2021/04/15 00:44:09;;;;;;;12.73;7.83;;;0.50;99.90;;;;;;6217652;28;20052;-78
2021/04/15 00:47:15;;;;;;;9.50;8.35;;;0.90;99.90;;;;;;6219100;28;20076;-78
2021/04/15 00:50:22;;;;;;;8.98;7.80;;;0.50;99.90;;;;;;6217667;28;20029;-78
2021/04/15 00:53:45;;;;;;;10.55;7.53;;;1.00;99.90;;;;;;6217361;28;20038;-78
2021/04/15 00:56:46;;;;;;;8.90;7.18;;;0.60;99.90;;;;;;6219030;28;20053;-78
2021/04/15 00:59:47;;;;;;;7.93;6.70;;;1.10;99.90;;;;;;6185851;28;20095;-78
2021/04/15 01:02:47;;;;;;;10.30;7.05;;;0.30;99.90;;;;;;6217788;28;20465;-78
2021/04/15 01:05:49;;;;;;;8.88;6.85;;;0.70;99.90;;;;;;6184968;28;20213;-78
2021/04/15 01:08:50;;;;;;;8.52;7.10;;;0.40;99.90;;;;;;6201103;28;20546;-78
2021/04/15 01:12:15;;;;;;;7.90;6.80;;;0.30;99.90;;;;;;6185363;28;20017;-78
2021/04/15 01:15:54;;;;;;;9.40;7.18;;;0.40;99.90;;;;;;6218785;28;20388;-78
2021/04/15 01:18:55;;;;;;;9.90;7.93;;;0.30;99.90;;;;;;6218630;28;20042;-78
2021/04/15 01:22:26;;;;;;;9.88;7.60;;;1.30;99.90;;;;;;6218592;28;20383;-78
2021/04/15 01:25:50;;;;;;;8.93;7.18;;;0.40;99.90;;;;;;6187475;28;20038;-78
2021/04/15 01:29:03;;;;;;;8.15;6.93;;;0.40;99.90;;;;;;6189504;28;20045;-78
2021/04/15 01:32:26;;;;;;;11.90;7.95;;;0.50;99.90;;;;;;6218389;28;20072;-78
2021/04/15 01:35:32;;;;;;;11.95;8.07;;;0.50;99.90;;;;;;6200921;28;20034;-78
2021/04/15 01:38:46;;;;;;;9.43;8.35;;;0.30;99.90;;;;;;6216771;28;20073;-78
2021/04/15 01:41:55;;;;;;;11.38;9.18;;;0.40;99.90;;;;;;6201160;28;20404;-77
2021/04/15 01:45:07;;;;;;;10.23;7.97;;;0.30;99.90;;;;;;6187550;28;20032;-78
2021/04/15 01:48:12;;;;;;;8.80;7.90;;;0.20;99.90;;;;;;6216242;28;20038;-77
2021/04/15 01:51:28;;;;;;;12.90;8.07;;;0.40;99.90;;;;;;6216689;28;20504;-78
2021/04/15 01:54:33;;;;;;;12.23;7.93;;;2.20;99.90;;;;;;6216132;28;20081;-78
2021/04/15 01:57:53;;;;;;;9.70;7.70;;;1.30;99.90;;;;;;6184513;28;20041;-78
2021/04/15 02:01:00;;;;;;;10.52;7.72;;;0.10;99.90;;;;;;6217203;28;20146;-77
2021/04/15 02:04:04;;;;;;;9.55;7.47;;;1.30;99.90;;;;;;6216653;28;20144;-78
2021/04/15 02:07:10;;;;;;;8.77;7.60;;;1.80;99.90;;;;;;6216574;28;20030;-77
2021/04/15 02:10:11;;;;;;;10.50;7.97;;;0.10;99.90;;;;;;6200486;28;20111;-77
2021/04/15 02:13:12;;;;;;;10.18;8.70;;;0.10;99.90;;;;;;6216629;28;20034;-78
2021/04/15 02:16:15;;;;;;;9.52;8.23;;;1.40;99.90;;;;;;6216453;28;20034;-78
2021/04/15 02:19:20;;;;;;;;;;;-1.20;99.90;;;;;;6216662;28;20044;-77
2021/04/15 02:22:28;;;;;;;12.77;8.73;;;0.00;99.90;;;;;;6200208;28;19909;-78
2021/04/15 02:25:41;;;;;;;12.10;8.27;;;0.40;99.90;;;;;;6217657;28;20030;-78
2021/04/15 02:29:13;;;;;;;10.20;8.00;;;0.10;99.90;;;;;;6220982;28;20037;-78
2021/04/15 02:32:31;;;;;;;10.15;7.43;;;-0.10;99.90;;;;;;6220386;28;20046;-78
2021/04/15 02:35:40;;;;;;;11.52;8.10;;;0.80;99.90;;;;;;6220500;28;20040;-78
2021/04/15 02:38:44;;;;;;;11.38;8.75;;;-0.20;99.90;;;;;;6220358;28;20484;-78
2021/04/15 02:41:45;;;;;;;10.35;8.85;;;0.60;99.90;;;;;;6212258;28;20068;-77
2021/04/15 02:44:53;;;;;;;12.10;8.63;;;1.20;99.90;;;;;;6204577;28;20116;-77
2021/04/15 02:47:59;;;;;;;10.57;8.68;;;-0.20;99.90;;;;;;6189125;28;20037;-78
2021/04/15 02:51:43;;;;;;;11.18;9.00;;;-0.40;99.90;;;;;;6220355;28;20029;-77
2021/04/15 02:54:50;;;;;;;11.82;8.80;;;-0.30;99.90;;;;;;6218993;28;20038;-78
2021/04/15 02:57:54;;;;;;;10.40;8.63;;;-0.10;99.90;;;;;;6219765;28;20042;-78
2021/04/15 03:00:55;;;;;;;9.30;7.72;;;-0.30;99.90;;;;;;6219824;28;20116;-78
2021/04/15 03:03:57;;;;;;;12.13;9.30;;;-0.30;99.90;;;;;;6220094;28;20083;-78
2021/04/15 03:06:57;;;;;;;13.60;8.18;;;-0.70;99.90;;;;;;6187452;28;20054;-78
2021/04/15 03:09:59;;;;;;;13.10;10.07;;;-0.70;99.90;;;;;;6188075;28;20619;-78
2021/04/15 03:12:59;;;;;;;16.08;9.98;;;-0.50;99.90;;;;;;6203364;28;20044;-78
2021/04/15 03:16:04;;;;;;;16.10;9.40;;;0.70;99.90;;;;;;6221189;28;20026;-78
2021/04/15 03:19:20;;;;;;;18.63;8.93;;;-0.80;99.90;;;;;;6219604;28;20080;-77
2021/04/15 03:22:21;;;;;;;10.15;7.85;;;-0.50;99.90;;;;;;6188760;28;20498;-78
2021/04/15 03:25:22;;;;;;;11.70;8.23;;;-0.50;99.90;;;;;;6219609;28;20030;-77
2021/04/15 03:28:30;;;;;;;11.70;9.75;;;0.60;99.90;;;;;;6200045;28;20443;-78
2021/04/15 03:31:31;;;;;;;14.60;9.98;;;-0.50;99.90;;;;;;6203658;28;20442;-78
2021/04/15 03:35:01;;;;;;;15.68;10.13;;;-0.90;99.90;;;;;;6187600;28;20030;-78
2021/04/15 03:38:05;;;;;;;18.70;11.10;;;-0.60;99.90;;;;;;6199414;28;20045;-77
2021/04/15 03:41:10;;;;;;;18.15;11.52;;;-0.20;99.90;;;;;;6188159;28;20540;-77
2021/04/15 03:44:47;;;;;;;25.52;15.70;;;-0.60;99.90;;;;;;6219667;28;20117;-78
2021/04/15 03:47:53;;;;;;;15.02;11.32;;;-0.40;99.90;;;;;;6144658;29;20514;-78
2021/04/15 03:50:59;;;;;;;12.38;8.75;;;0.30;99.90;;;;;;6128879;29;20049;-78
2021/04/15 03:54:04;;;;;;;10.68;7.85;;;0.70;99.90;;;;;;6128765;29;20078;-78
2021/04/15 03:57:07;;;;;;;10.95;7.68;;;-0.80;99.90;;;;;;6090383;29;20466;-78
2021/04/15 04:00:10;;;;;;;11.40;8.10;;;-0.70;99.90;;;;;;6129047;29;20174;-77
2021/04/15 04:03:15;;;;;;;11.43;9.35;;;-0.60;99.90;;;;;;6112657;29;20694;-78
2021/04/15 04:06:19;;;;;;;10.65;8.18;;;-0.20;99.90;;;;;;6112950;29;20035;-78
2021/04/15 04:09:27;;;;;;;13.50;9.40;;;-0.90;99.90;;;;;;6112488;29;20059;-77
2021/04/15 04:12:43;;;;;;;25.70;16.92;;;-0.70;99.90;;;;;;6106665;29;20163;-77
2021/04/15 04:15:46;;;;;;;12.93;9.30;;;-1.00;99.90;;;;;;6105724;29;20043;-78
2021/04/15 04:19:14;;;;;;;13.65;9.57;;;0.00;99.90;;;;;;6089393;29;20529;-77
2021/04/15 04:22:42;;;;;;;10.02;8.65;;;-1.10;99.90;;;;;;6172326;28;20033;-78
2021/04/15 04:25:46;;;;;;;12.93;9.38;;;-1.00;99.90;;;;;;6220009;28;20026;-77
2021/04/15 04:29:18;;;;;;;12.55;10.30;;;-1.10;99.90;;;;;;6218329;28;20488;-77
2021/04/15 04:32:21;;;;;;;11.63;9.30;;;-0.90;99.90;;;;;;6218469;28;20380;-77
2021/04/15 04:35:25;;;;;;;11.50;8.10;;;0.20;99.90;;;;;;6218301;28;20067;-78
2021/04/15 04:38:25;;;;;;;13.13;8.35;;;-1.10;99.90;;;;;;6201401;28;20088;-77
2021/04/15 04:41:52;;;;;;;15.73;9.30;;;-0.10;99.90;;;;;;6201226;28;20054;-78
2021/04/15 04:44:57;;;;;;;12.05;9.15;;;-1.00;99.90;;;;;;6217873;28;20030;-78
2021/04/15 04:48:04;;;;;;;14.18;10.75;;;-1.10;99.90;;;;;;6217290;28;20113;-78
2021/04/15 04:51:13;;;;;;;14.27;11.77;;;-0.90;99.90;;;;;;6220007;28;20049;-78
2021/04/15 04:54:16;;;;;;;12.05;9.20;;;-1.10;99.90;;;;;;6217616;28;20037;-78
2021/04/15 04:57:28;;;;;;;11.80;9.07;;;0.50;99.90;;;;;;6204814;28;20030;-77
2021/04/15 05:00:29;;;;;;;14.63;9.40;;;-1.00;99.90;;;;;;6217588;28;20075;-77
2021/04/15 05:03:31;;;;;;;11.10;9.30;;;-0.30;99.90;;;;;;6201332;28;20033;-78
2021/04/15 05:06:33;;;;;;;17.38;12.30;;;-0.80;99.90;;;;;;6185927;28;20040;-77
2021/04/15 05:09:38;;;;;;;14.88;11.13;;;-0.70;99.90;;;;;;6186078;28;20423;-78
2021/04/15 05:12:39;;;;;;;15.88;12.48;;;;;;;;;;6185176;28;20080;-77
2021/04/15 05:15:40;;;;;;;13.40;9.95;;;;;;;;;;6216898;28;20034;-78
2021/04/15 05:18:41;;;;;;;11.77;9.38;;;0.00;99.90;;;;;;6217226;28;20550;-77
2021/04/15 05:21:42;;;;;;;13.52;9.30;;;;;;;;;;6219051;28;20081;-78
2021/04/15 05:24:48;;;;;;;11.38;9.48;;;1.50;99.90;;;;;;6216721;28;20480;-78
2021/04/15 05:27:49;;;;;;;15.52;10.48;;;3.20;99.90;;;;;;6186056;28;20042;-78
2021/04/15 05:30:50;;;;;;;10.63;8.00;;;2.10;99.60;;;;;;6217000;28;20044;-78
2021/04/15 05:33:51;;;;;;;10.48;8.82;;;2.80;99.90;;;;;;6217016;28;20087;-78
2021/04/15 05:36:57;;;;;;;9.70;8.70;;;3.20;99.90;;;;;;6185345;28;20061;-78
2021/04/15 05:39:58;;;;;;;15.13;9.00;;;;;;;;;;6216887;28;20107;-78
2021/04/15 05:43:18;;;;;;;16.25;9.15;;;;;;;;;;6216531;28;20502;-78
2021/04/15 05:46:19;;;;;;;13.20;9.52;;;;;;;;;;6218341;28;20037;-78
2021/04/15 05:49:26;;;;;;;9.70;8.52;;;3.70;99.90;;;;;;6216819;28;20037;-78
2021/04/15 05:52:43;;;;;;;9.63;8.63;;;4.20;99.90;;;;;;6216917;28;20439;-78
2021/04/15 05:55:51;;;;;;;11.85;8.82;;;4.60;94.60;;;;;;6216590;28;20037;-78
2021/04/15 05:58:54;;;;;;;10.10;7.93;;;4.90;93.30;;;;;;6217770;28;20074;-78
2021/04/15 06:02:06;;;;;;;10.57;7.57;;;4.90;92.10;;;;;;6222084;28;20096;-78
2021/04/15 06:05:18;;;;;;;11.20;8.25;;;6.10;92.60;;;;;;6221802;28;20071;-78
2021/04/15 06:08:19;;;;;;;14.18;8.05;;;5.40;91.10;;;;;;6221221;28;20026;-78
2021/04/15 06:11:53;;;;;;;14.15;11.48;;;5.90;98.70;;;;;;6204845;28;20114;-78
2021/04/15 06:15:09;;;;;;;15.88;12.48;;;5.20;90.30;;;;;;6222685;28;20033;-79
2021/04/15 06:18:41;;;;;;;10.68;8.43;;;6.20;89.10;;;;;;6220966;28;20034;-79
2021/04/15 06:22:19;;;;;;;13.27;8.65;;;6.60;95.60;;;;;;6122959;29;20051;-79
2021/04/15 06:25:27;;;;;;;14.05;9.13;;;6.70;87.90;;;;;;6103247;29;20037;-78
2021/04/15 06:28:30;;;;;;;21.23;14.32;;;7.20;90.00;;;;;;6114295;29;20032;-79
2021/04/15 06:31:39;;;;;;;19.77;14.43;;;6.60;90.10;;;;;;6095159;29;20079;-79
2021/04/15 06:34:40;;;;;;;14.82;12.25;;;7.30;88.50;;;;;;6072105;29;20147;-79
2021/04/15 06:37:46;;;;;;;17.70;14.73;;;8.00;88.40;;;;;;6106810;29;20143;-79
2021/04/15 06:40:59;;;;;;;13.45;10.50;;;8.10;86.50;;;;;;6100387;29;20562;-79
2021/04/15 06:44:26;;;;;;;11.43;8.68;;;8.10;91.20;;;;;;6100845;29;20419;-79
2021/04/15 06:47:30;;;;;;;9.98;8.48;;;8.00;92.50;;;;;;6093771;29;20044;-79
2021/04/15 06:50:49;;;;;;;10.95;8.82;;;8.50;92.40;;;;;;6099841;29;20048;-79
2021/04/15 06:54:17;;;;;;;11.98;8.93;;;8.70;78.40;;;;;;6100354;29;20047;-79
2021/04/15 06:57:29;;;;;;;8.15;7.35;;;8.70;77.90;;;;;;6124578;28;20050;-79
2021/04/15 07:00:54;;;;;;;10.73;8.50;;;9.30;76.20;;;;;;6173561;28;20031;-79
2021/04/15 07:03:55;;;;;;;9.75;8.60;;;9.70;92.10;;;;;;6161096;28;20104;-79
2021/04/15 07:07:06;;;;;;;11.80;9.93;;;10.00;77.70;;;;;;6173355;28;20022;-79
2021/04/15 07:10:37;;;;;;;10.73;9.10;;;10.20;76.70;;;;;;6158015;28;20536;-80
2021/04/15 07:14:10;;;;;;;10.23;8.88;;;10.50;74.50;;;;;;6158382;28;20069;-80
2021/04/15 07:17:23;;;;;;;8.52;7.28;;;10.70;73.30;;;;;;6174059;28;20039;-80
2021/04/15 07:20:35;;;;;;;10.25;7.25;;;10.80;73.60;;;;;;6173175;28;20393;-79
2021/04/15 07:24:00;;;;;;;8.52;6.82;;;11.20;73.10;;;;;;6187744;28;20150;-79
2021/04/15 07:27:33;;;;;;;10.75;8.02;;;11.40;71.40;;;;;;6173204;28;20030;-80
2021/04/15 07:31:01;;;;;;;8.60;7.15;;;11.70;71.10;;;;;;6174654;28;20045;-80
2021/04/15 07:34:11;;;;;;;7.95;7.15;;;12.20;69.30;;;;;;6172863;28;20031;-80
2021/04/15 07:37:40;;;;;;;9.10;7.85;;;11.40;69.90;;;;;;6187059;28;20034;-79
2021/04/15 07:41:09;;;;;;;9.52;7.90;;;11.50;70.70;;;;;;6170204;28;20093;-79
2021/04/15 07:44:23;;;;;;;8.90;6.93;;;11.90;71.60;;;;;;6219192;28;20045;-79
2021/04/15 07:47:42;;;;;;;7.53;6.72;;;11.60;69.90;;;;;;6219503;28;20033;-80
2021/04/15 07:50:43;;;;;;;8.57;6.63;;;;;;;;;;6220643;28;20041;-80
2021/04/15 07:54:14;;;;;;;10.35;7.10;;;10.60;88.80;;;;;;6220694;28;20484;-80
2021/04/15 07:57:33;;;;;;;7.68;6.88;;;11.40;70.20;;;;;;6220906;28;20542;-80
2021/04/15 08:00:52;;;;;;;9.52;6.68;;;11.10;67.60;;;;;;6220634;28;20152;-80
2021/04/15 08:04:08;;;;;;;9.07;6.55;;;10.60;69.10;;;;;;6220692;28;20037;-80
2021/04/15 08:07:46;;;;;;;8.07;7.22;;;9.70;76.80;;;;;;6218595;28;20030;-80
2021/04/15 08:11:15;;;;;;;10.10;6.40;;;9.00;93.00;;;;;;6220212;28;20026;-79
2021/04/15 08:14:44;;;;;;;7.38;5.60;;;8.60;93.30;;;;;;6220213;28;20111;-79
2021/04/15 08:18:04;;;;;;;7.10;5.53;;;8.80;77.30;;;;;;6185555;28;20046;-80
2021/04/15 08:21:26;;;;;;;6.25;4.93;;;10.60;75.20;;;;;;6220373;28;20080;-80
2021/04/15 08:24:48;;;;;;;34.10;29.07;;;12.00;76.60;;;;;;6217732;28;20030;-80
2021/04/15 08:28:04;;;;;;;5.50;3.70;;;11.90;73.40;;;;;;6188728;28;20460;-80
2021/04/15 08:31:16;;;;;;;4.18;3.55;;;12.20;56.70;;;;;;6202793;28;20036;-79
2021/04/15 08:34:20;;;;;;;;;;;11.00;55.80;;;;;;6189231;28;20025;-80
2021/04/15 08:37:58;;;;;;;5.10;3.60;;;10.10;58.20;;;;;;6220239;28;19925;-80
2021/04/15 08:41:17;;;;;;;5.50;3.85;;;9.50;59.60;;;;;;6219875;28;20080;-80
2021/04/15 08:44:21;;;;;;;4.85;3.70;;;9.70;61.90;;;;;;6217776;28;20021;-80
2021/04/15 08:47:57;;;;;;;4.57;3.60;;;10.90;62.60;;;;;;6219707;28;20036;-80
2021/04/15 08:51:06;;;;;;;5.18;3.28;;;11.70;54.70;;;;;;6196160;28;20073;-79
2021/04/15 08:54:38;;;;;;;4.88;3.63;;;13.30;52.40;;;;;;6201461;28;20037;-80
2021/04/15 08:58:03;;;;;;;4.68;3.20;;;13.70;48.70;;;;;;6219808;28;20599;-80
2021/04/15 09:01:30;;;;;;;4.25;3.25;;;12.10;49.20;;;;;;6219651;28;20076;-80
2021/04/15 09:04:51;;;;;;;5.03;3.10;;;11.20;51.30;;;;;;6188164;28;20040;-80
2021/04/15 09:08:10;;;;;;;3.95;3.08;;;10.20;57.70;;;;;;6217238;28;20088;-80
2021/04/15 09:11:15;;;;;;;7.32;5.20;;;9.90;55.50;;;;;;6217656;28;20068;-80
2021/04/15 09:14:45;;;;;;;4.35;3.30;;;9.50;58.30;;;;;;6215243;28;20088;-80
2021/04/15 09:18:14;;;;;;;5.63;3.50;;;9.50;58.30;;;;;;6205819;28;20063;-79
2021/04/15 09:21:49;;;;;;;6.22;4.00;;;9.70;58.80;;;;;;6181570;28;20045;-80
2021/04/15 09:25:03;;;;;;;3.20;2.83;;;10.10;57.10;;;;;;6202987;28;20037;-80
2021/04/15 09:28:10;;;;;;;7.75;5.22;;;11.20;51.90;;;;;;6200732;28;20069;-80
2021/04/15 09:31:17;;;;;;;5.10;3.72;;;13.00;55.00;;;;;;6200979;28;20575;-79
2021/04/15 09:34:36;;;;;;;6.80;5.22;;;14.10;69.70;;;;;;6217279;28;20033;-80
2021/04/15 09:38:00;;;;;;;7.40;4.03;;;14.10;49.70;;;;;;6233639;28;20034;-80
2021/04/15 09:41:13;;;;;;;5.63;3.58;;;14.20;49.40;;;;;;6206576;28;20467;-80
2021/04/15 09:44:32;;;;;;;5.38;4.88;;;13.60;45.90;;;;;;6218881;28;20034;-80
2021/04/15 09:47:38;;;;;;;4.05;3.42;;;11.90;52.10;;;;;;6219009;28;20053;-80
2021/04/15 09:50:53;;;;;;;4.35;3.30;;;11.70;48.40;;;;;;6218458;28;20045;-80
2021/04/15 09:54:16;;;;;;;4.60;2.85;;;12.40;51.60;;;;;;6186700;28;20388;-80
2021/04/15 09:57:40;;;;;;;5.57;3.97;;;12.90;48.40;;;;;;6218745;28;20026;-80
2021/04/15 10:00:51;;;;;;;5.43;3.80;;;12.80;51.40;;;;;;6218024;28;20452;-80
2021/04/15 10:04:04;;;;;;;7.32;6.65;;;13.40;51.00;;;;;;6216830;28;20026;-80
2021/04/15 10:07:16;;;;;;;4.05;3.10;;;14.10;68.20;;;;;;6216741;28;20423;-80
2021/04/15 10:10:33;;;;;;;6.03;4.30;;;14.00;50.50;;;;;;6203709;28;20030;-80
2021/04/15 10:14:11;;;;;;;4.32;3.38;;;13.50;49.60;;;;;;6185629;28;20022;-80
2021/04/15 10:18:08;;;;;;;5.60;3.45;;;13.20;45.00;;;;;;6218494;28;20029;-79
2021/04/15 10:21:14;;;;;;;4.85;2.55;;;12.60;45.90;;;;;;6142829;29;20032;-79
2021/04/15 10:24:26;;;;;;;3.33;2.55;;;12.50;46.20;;;;;;6126806;29;20500;-79
2021/04/15 10:27:51;;;;;;;3.20;2.90;;;13.30;65.20;;;;;;6126731;29;20031;-80
2021/04/15 10:31:29;;;;;;;3.67;2.58;;;13.90;78.00;;;;;;6126564;29;20091;-80
2021/04/15 10:34:47;;;;;;;3.20;2.80;;;13.30;67.10;;;;;;6142278;29;20466;-80
2021/04/15 10:38:16;;;;;;;3.50;2.80;;;13.50;45.70;;;;;;6126377;29;20106;-80
2021/04/15 10:41:26;;;;;;;3.80;3.03;;;14.40;61.40;;;;;;6142028;28;20051;-80
2021/04/15 10:45:03;;;;;;;5.43;3.03;;;15.30;45.10;;;;;;6127005;29;20446;-80
2021/04/15 10:48:13;;;;;;;3.78;2.70;;;16.00;65.20;;;;;;6146291;29;20533;-80
2021/04/15 10:51:33;;;;;;;3.90;2.83;;;16.00;44.30;;;;;;6165211;28;20069;-80
2021/04/15 10:54:36;;;;;;;4.95;3.25;;;16.80;47.80;;;;;;6220443;28;20033;-80
2021/04/15 10:57:37;;;;;;;3.88;3.15;;;16.50;46.20;;;;;;6188813;28;20053;-80
2021/04/15 11:00:37;;;;;;;4.55;3.00;;;15.50;44.90;;;;;;6221059;28;20026;-80
2021/04/15 11:03:38;;;;;;;3.95;3.10;;;14.70;45.90;;;;;;6219922;28;20105;-80
2021/04/15 11:07:07;;;;;;;5.50;3.67;;;14.40;46.50;;;;;;6222387;28;20416;-80
2021/04/15 11:10:27;;;;;;;4.40;4.00;;;13.10;38.70;;;;;;6220266;28;20630;-80
2021/04/15 11:13:27;;;;;;;4.45;3.28;;;11.00;60.40;;;;;;6220111;28;20018;-79
2021/04/15 11:16:28;;;;;;;6.20;3.75;;;11.60;44.50;;;;;;6220194;28;20025;-79
2021/04/15 11:19:29;;;;;;;4.88;3.42;;;9.80;60.40;;;;;;6219613;28;20471;-80
2021/04/15 11:22:31;;;;;;;4.38;3.30;;;9.70;48.40;;;;;;6201303;28;20037;-80
2021/04/15 11:25:48;;;;;;;4.13;3.65;;;9.60;48.50;;;;;;6187596;28;20041;-79
2021/04/15 11:28:50;;;;;;;4.40;3.92;;;9.50;46.10;;;;;;6203791;28;20561;-80
2021/04/15 11:31:51;;;;;;;5.05;3.50;;;10.00;49.60;;;;;;6188080;28;20678;-79
2021/04/15 11:35:07;;;;;;;5.70;3.60;;;9.90;65.10;;;;;;6219607;28;20044;-80
2021/04/15 11:38:19;;;;;;;5.15;3.70;;;9.90;47.60;;;;;;6235720;28;20037;-80
2021/04/15 11:41:25;;;;;;;4.25;3.20;;;9.90;70.20;;;;;;6219459;28;20049;-79
2021/04/15 11:44:28;;;;;;;4.75;3.60;;;10.60;75.10;;;;;;6202779;28;20033;-79
2021/04/15 11:47:30;;;;;;;5.82;3.63;;;10.60;44.00;;;;;;6235585;28;20061;-80
2021/04/15 11:50:30;;;;;;;5.25;4.05;;;10.80;60.00;;;;;;6219211;28;20411;-79
2021/04/15 11:53:41;;;;;;;4.65;3.50;;;10.40;49.50;;;;;;6202852;28;20046;-80
2021/04/15 11:56:44;;;;;;;7.40;4.30;;;9.90;51.80;;;;;;6218691;28;20809;-79
2021/04/15 12:00:00;;;;;;;5.32;3.85;;;8.90;67.70;;;;;;6218135;28;20037;-80
2021/04/15 12:03:00;;;;;;;4.68;3.70;;;9.00;68.50;;;;;;6220733;28;20030;-80
2021/04/15 12:06:09;;;;;;;7.05;3.97;;;9.20;72.00;;;;;;6219569;28;20088;-79
2021/04/15 12:09:13;;;;;;;5.25;4.10;;;9.20;54.60;;;;;;6218831;28;20124;-79
2021/04/15 12:12:23;;;;;;;4.53;4.13;;;9.60;50.80;;;;;;6187307;28;20475;-80
2021/04/15 12:15:29;;;;;;;7.90;4.45;;;9.40;70.10;;;;;;6218916;28;20591;-80
2021/04/15 12:18:52;;;;;;;7.65;4.90;;;9.30;57.10;;;;;;6204607;28;20025;-79
2021/04/15 12:21:59;;;;;;;5.10;3.97;;;9.40;56.80;;;;;;6219077;28;20420;-80
2021/04/15 12:25:04;;;;;;;7.53;4.00;;;9.60;53.30;;;;;;6187268;28;20057;-80
2021/04/15 12:28:17;;;;;;;6.25;4.15;;;9.80;50.10;;;;;;6218295;28;20037;-79
2021/04/15 12:31:32;;;;;;;4.15;3.65;;;10.10;61.00;;;;;;6226200;28;20041;-79
2021/04/15 12:34:51;;;;;;;4.60;3.60;;;10.10;45.80;;;;;;6184857;28;20026;-80
2021/04/15 12:38:15;;;;;;;6.82;4.30;;;10.70;43.40;;;;;;6188177;28;20041;-80
2021/04/15 12:41:15;;;;;;;6.03;3.65;;;10.40;67.80;;;;;;6196641;28;20136;-83
2021/04/15 12:44:22;;;;;;;6.28;3.85;;;10.10;66.30;;;;;;6215596;28;20472;-80
2021/04/15 12:47:23;;;;;;;4.63;3.90;;;;;;;;;;6202000;28;20077;-80
2021/04/15 12:50:25;;;;;;;6.97;4.45;;;9.50;73.90;;;;;;6217504;28;20030;-79
2021/04/15 12:53:26;;;;;;;5.70;4.10;;;;;;;;;;6218051;28;20112;-79
2021/04/15 12:56:32;;;;;;;8.50;4.40;;;10.10;77.40;;;;;;6217342;28;20534;-80
2021/04/15 12:59:35;;;;;;;5.70;4.05;;;10.70;60.50;;;;;;6215436;28;20046;-80
2021/04/15 13:02:36;;;;;;;4.65;4.15;;;10.80;49.60;;;;;;6185806;28;20022;-80
2021/04/15 13:05:37;;;;;;;5.60;4.05;;;11.40;47.20;;;;;;6211506;28;20062;-80
2021/04/15 13:09:04;;;;;;;6.10;3.58;;;10.60;50.00;;;;;;6231030;28;20037;-80
2021/04/15 13:12:20;;;;;;;4.47;3.63;;;10.40;47.70;;;;;;6213181;28;20041;-80
2021/04/15 13:15:24;;;;;;;6.20;4.00;;;10.50;46.20;;;;;;6218825;28;20036;-80
2021/04/15 13:18:33;;;;;;;4.00;3.60;;;10.60;66.30;;;;;;6219373;28;20427;-80
2021/04/15 13:21:35;;;;;;;4.45;3.80;;;10.90;61.30;;;;;;6198918;28;20041;-80
2021/04/15 13:24:47;;;;;;;5.43;3.53;;;11.00;44.30;;;;;;6185258;28;20030;-80
2021/04/15 13:27:57;;;;;;;;;;;10.40;47.20;;;;;;6219226;28;20056;-80
2021/04/15 13:31:00;;;;;;;5.82;3.95;;;10.10;48.10;;;;;;6218929;28;20000;-80
2021/04/15 13:34:12;;;;;;;7.25;4.47;;;8.40;73.70;;;;;;6209152;28;20034;-79
2021/04/15 13:37:49;;;;;;;4.32;3.72;;;6.60;55.50;;;;;;6208468;28;20034;-80
2021/04/15 13:40:51;;;;;;;5.18;3.90;;;8.70;56.90;;;;;;6126945;29;20051;-80
2021/04/15 13:44:02;;;;;;;5.32;4.00;;;8.30;70.60;;;;;;6127672;29;20039;-79
2021/04/15 13:47:41;;;;;;;5.22;4.20;;;8.20;53.20;;;;;;6127893;29;20102;-79
2021/04/15 13:51:09;;;;;;;5.97;4.45;;;8.60;75.40;;;;;;6143107;29;20047;-79
2021/04/15 13:54:16;;;;;;;5.10;4.18;;;8.50;54.30;;;;;;6127275;29;20044;-79
2021/04/15 13:57:18;;;;;;;8.25;4.20;;;8.80;58.80;;;;;;6142921;29;20120;-79
2021/04/15 14:00:38;;;;;;;4.97;4.47;;;8.90;58.50;;;;;;6127204;29;20509;-79
2021/04/15 14:03:40;;;;;;;6.82;4.55;;;8.40;56.40;;;;;;6111422;29;20057;-80
2021/04/15 14:06:40;;;;;;;5.67;4.00;;;9.20;57.80;;;;;;6126926;29;20028;-80
2021/04/15 14:09:41;;;;;;;4.60;3.97;;;8.40;72.70;;;;;;6110912;29;20070;-79
2021/04/15 14:12:48;;;;;;;5.68;4.15;;;9.00;55.70;;;;;;6110797;29;20035;-79
2021/04/15 14:15:55;;;;;;;4.97;4.22;;;8.70;51.50;;;;;;6179834;28;20643;-80
2021/04/15 14:19:17;;;;;;;4.95;4.22;;;9.00;70.80;;;;;;6194200;28;20365;-80
2021/04/15 14:22:20;;;;;;;6.22;4.68;;;9.20;53.10;;;;;;6188488;28;20493;-79
2021/04/15 14:25:32;;;;;;;6.13;4.20;;;9.60;52.60;;;;;;6219740;28;20033;-80
2021/04/15 14:28:34;;;;;;;8.23;4.22;;;10.00;51.70;;;;;;6204311;28;20041;-80
2021/04/15 14:31:41;;;;;;;6.15;3.90;;;9.90;68.90;;;;;;6218692;28;20088;-80
2021/04/15 14:34:44;;;;;;;3.92;3.53;;;10.20;83.50;;;;;;6216741;28;20472;-80
2021/04/15 14:37:45;;;;;;;6.68;3.95;;;10.10;66.40;;;;;;6221067;28;20065;-80
2021/04/15 14:40:46;;;;;;;8.15;3.45;;;10.30;65.50;;;;;;6208850;28;20151;-80
2021/04/15 14:43:47;;;;;;;4.97;3.85;;;9.60;79.70;;;;;;6220963;28;20026;-80
2021/04/15 14:46:47;;;;;;;5.18;3.90;;;9.50;65.70;;;;;;6220815;28;20453;-79
2021/04/15 14:50:03;;;;;;;5.10;4.53;;;9.30;61.50;;;;;;6197875;28;20064;-80
2021/04/15 14:53:17;;;;;;;7.47;4.43;;;9.40;80.60;;;;;;6210500;28;20040;-79
2021/04/15 14:56:25;;;;;;;6.22;4.70;;;9.70;81.60;;;;;;6220887;28;20460;-79
2021/04/15 14:59:31;;;;;;;4.75;3.88;;;10.00;65.50;;;;;;6189380;28;20127;-80
2021/04/15 15:02:32;;;;;;;6.93;5.70;;;10.50;80.50;;;;;;6221022;28;20409;-80
2021/04/15 15:05:42;;;;;;;10.52;3.67;;;10.30;62.60;;;;;;6191061;28;20032;-79
2021/04/15 15:08:44;;;;;;;3.92;3.40;;;;;;;;;;6220635;28;20121;-80
2021/04/15 15:11:45;;;;;;;6.22;3.53;;;;;;;;;;6193187;28;20030;-79
2021/04/15 15:14:46;;;;;;;5.13;3.70;;;9.20;60.70;;;;;;6204913;28;20084;-79
2021/04/15 15:17:48;;;;;;;10.30;3.93;;;;;;;;;;6204031;28;20033;-79
2021/04/15 15:20:51;;;;;;;5.22;3.55;;;9.00;58.50;;;;;;6220135;28;20041;-79
2021/04/15 15:24:14;;;;;;;6.88;3.53;;;8.90;63.70;;;;;;6219986;28;20472;-80
2021/04/15 15:27:18;;;;;;;6.35;3.58;;;8.80;65.90;;;;;;6182611;28;20026;-79
2021/04/15 15:30:38;;;;;;;6.63;3.33;;;9.20;48.60;;;;;;6188760;28;20022;-79
2021/04/15 15:33:44;;;;;;;5.20;3.50;;;9.20;51.40;;;;;;6193349;28;20022;-79
2021/04/15 15:36:44;;;;;;;4.15;3.20;;;10.40;50.40;;;;;;6189327;28;20069;-79
2021/04/15 15:39:45;;;;;;;4.25;3.85;;;9.50;50.00;;;;;;6219747;28;20496;-79
2021/04/15 15:42:55;;;;;;;7.93;4.30;;;9.90;51.20;;;;;;6187567;28;20054;-79
2021/04/15 15:46:01;;;;;;;3.85;3.45;;;9.60;52.90;;;;;;6221053;28;20030;-79
2021/04/15 15:49:01;;;;;;;7.13;4.30;;;8.70;50.80;;;;;;6209060;28;20112;-79
2021/04/15 15:52:12;;;;;;;5.82;4.10;;;8.40;54.10;;;;;;6219494;28;20432;-80
2021/04/15 15:55:35;;;;;;;6.88;3.50;;;8.20;51.70;;;;;;6189253;28;20025;-79
2021/04/15 15:58:35;;;;;;;5.63;3.33;;;8.50;54.20;;;;;;6219239;28;20046;-79
2021/04/15 16:01:36;;;;;;;4.90;3.75;;;8.20;53.00;;;;;;6218821;28;20416;-79
2021/04/15 16:05:09;;;;;;;4.80;3.63;;;9.00;54.20;;;;;;6209242;28;20111;-79
2021/04/15 16:08:29;;;;;;;5.65;3.28;;;8.20;50.20;;;;;;6220395;28;20041;-79
2021/04/15 16:11:38;;;;;;;5.60;3.65;;;8.20;70.20;;;;;;6215605;28;20614;-79
2021/04/15 16:14:40;;;;;;;6.10;3.38;;;8.80;52.90;;;;;;6195230;28;20460;-79
2021/04/15 16:17:41;;;;;;;4.95;3.55;;;8.80;52.80;;;;;;6202541;28;20125;-80
2021/04/15 16:20:56;;;;;;;4.47;3.90;;;8.30;69.50;;;;;;6210466;28;20048;-79
2021/04/15 16:24:20;;;;;;;6.80;4.53;;;8.40;52.50;;;;;;6202695;28;20026;-79
2021/04/15 16:27:20;;;;;;;6.35;4.28;;;8.60;50.60;;;;;;6203862;28;20026;-79
2021/04/15 16:30:23;;;;;;;8.52;5.47;;;8.70;53.70;;;;;;6213932;28;20100;-79
2021/04/15 16:33:24;;;;;;;11.38;6.45;;;8.70;52.50;;;;;;6202375;28;20396;-79
2021/04/15 16:36:24;;;;;;;5.50;4.78;;;9.50;55.60;;;;;;6201858;28;20125;-79
2021/04/15 16:39:25;;;;;;;7.90;5.35;;;7.80;70.80;;;;;;6209048;28;20080;-79
2021/04/15 16:42:35;;;;;;;8.75;5.20;;;9.40;54.70;;;;;;6217860;28;20109;-79